createdAt,value
2023-05-04T00:00:12.724Z,9.73
2023-05-04T00:03:00.414Z,9.30
2023-05-04T00:05:27.452Z,9.67
2023-05-04T00:07:54.526Z,9.20
2023-05-04T00:10:21.430Z,9.20
2023-05-04T00:12:48.487Z,9.60
2023-05-04T00:15:15.556Z,9.53
2023-05-04T00:17:42.537Z,8.90
2023-05-04T00:20:10.134Z,8.87
2023-05-04T00:22:37.130Z,8.93
2023-05-04T00:25:04.070Z,9.20
2023-05-04T00:27:31.193Z,9.10
2023-05-04T00:29:57.935Z,9.67
2023-05-04T00:32:24.981Z,9.27
2023-05-04T00:34:52.046Z,8.37
2023-05-04T00:37:21.227Z,9.37
2023-05-04T00:39:47.975Z,8.83
2023-05-04T00:42:14.997Z,9.60
2023-05-04T00:44:41.912Z,9.27
2023-05-04T00:47:09.538Z,9.17
2023-05-04T00:49:36.509Z,7.57
2023-05-04T00:52:05.392Z,7.97
2023-05-04T00:54:33.028Z,9.97
2023-05-04T00:57:00.031Z,8.00
2023-05-04T00:59:26.773Z,8.10
2023-05-04T01:01:53.744Z,7.87
2023-05-04T01:04:20.779Z,8.13
2023-05-04T01:07:03.448Z,8.17
2023-05-04T01:09:37.909Z,9.00
2023-05-04T01:12:16.852Z,8.50
2023-05-04T01:14:44.620Z,8.50
2023-05-04T01:17:11.914Z,8.63
2023-05-04T01:19:38.941Z,8.93
2023-05-04T01:22:06.113Z,8.03
2023-05-04T01:24:33.284Z,8.07
2023-05-04T01:27:04.665Z,8.00
2023-05-04T01:29:48.748Z,8.00
2023-05-04T01:32:18.570Z,8.00
2023-05-04T01:34:45.634Z,8.00
2023-05-04T01:37:37.342Z,8.00
2023-05-04T01:40:05.498Z,7.73
2023-05-04T01:42:32.847Z,7.23
2023-05-04T01:44:59.592Z,8.10
2023-05-04T01:47:26.777Z,6.97
2023-05-04T01:49:53.477Z,7.00
2023-05-04T01:52:20.519Z,6.80
2023-05-04T01:54:47.307Z,8.20
2023-05-04T01:57:14.377Z,8.13
2023-05-04T01:59:41.962Z,7.97
2023-05-04T02:02:09.077Z,7.33
2023-05-04T02:04:35.967Z,7.90
2023-05-04T02:07:02.983Z,7.60
2023-05-04T02:09:29.685Z,8.27
2023-05-04T02:11:56.745Z,7.97
2023-05-04T02:14:24.276Z,7.63
2023-05-04T02:16:51.381Z,7.60
2023-05-04T02:19:18.084Z,7.73
2023-05-04T02:21:45.246Z,7.50
2023-05-04T02:24:12.068Z,7.93
2023-05-04T02:26:39.125Z,8.47
2023-05-04T02:29:06.293Z,7.13
2023-05-04T02:31:34.008Z,7.93
2023-05-04T02:34:01.456Z,7.47
2023-05-04T02:36:28.482Z,8.17
2023-05-04T02:38:56.015Z,8.47
2023-05-04T02:41:23.092Z,8.03
2023-05-04T02:43:51.825Z,7.63
2023-05-04T02:46:20.199Z,7.73
2023-05-04T02:48:47.071Z,7.40
2023-05-04T02:51:14.124Z,7.43
2023-05-04T02:53:40.905Z,7.90
2023-05-04T02:56:08.382Z,7.50
2023-05-04T02:58:35.204Z,8.53
2023-05-04T03:01:02.365Z,8.10
2023-05-04T03:03:29.196Z,8.10
2023-05-04T03:05:56.149Z,7.80
2023-05-04T03:08:22.862Z,8.87
2023-05-04T03:10:49.864Z,7.43
2023-05-04T03:13:16.806Z,8.47
2023-05-04T03:15:43.842Z,8.50
2023-05-04T03:18:10.683Z,8.30
2023-05-04T03:20:38.172Z,8.40
2023-05-04T03:23:04.905Z,8.00
2023-05-04T03:25:31.980Z,8.07
2023-05-04T03:27:59.180Z,8.40
2023-05-04T03:30:26.473Z,7.87
2023-05-04T03:32:56.853Z,7.30
2023-05-04T03:35:25.300Z,7.47
2023-05-04T03:37:54.474Z,8.23
2023-05-04T03:40:23.191Z,8.17
2023-05-04T03:42:55.210Z,7.07
2023-05-04T03:45:23.635Z,7.57
2023-05-04T03:47:51.334Z,7.50
2023-05-04T03:50:21.535Z,7.53
2023-05-04T03:52:49.798Z,8.00
2023-05-04T03:55:19.486Z,8.30
2023-05-04T03:57:49.561Z,6.80
2023-05-04T04:00:17.261Z,8.10
2023-05-04T04:02:51.499Z,7.70
2023-05-04T04:05:20.023Z,8.13
2023-05-04T04:07:48.719Z,6.67
2023-05-04T04:10:15.876Z,6.73
2023-05-04T04:12:42.577Z,7.87
2023-05-04T04:15:09.951Z,7.57
2023-05-04T04:17:36.726Z,7.57
2023-05-04T04:20:04.282Z,8.20
2023-05-04T04:22:31.231Z,6.97
2023-05-04T04:24:58.319Z,7.00
2023-05-04T04:27:25.166Z,7.80
2023-05-04T04:29:52.157Z,7.93
2023-05-04T04:32:19.455Z,7.27
2023-05-04T04:34:46.432Z,7.57
2023-05-04T04:37:13.243Z,7.20
2023-05-04T04:39:40.245Z,7.30
2023-05-04T04:42:07.314Z,7.50
2023-05-04T04:44:34.851Z,6.80
2023-05-04T04:47:01.971Z,6.87
2023-05-04T04:49:29.057Z,6.87
2023-05-04T04:51:55.912Z,7.07
2023-05-04T04:54:22.892Z,7.30
2023-05-04T04:56:49.578Z,7.90
2023-05-04T04:59:17.323Z,7.43
2023-05-04T05:01:44.061Z,7.33
2023-05-04T05:04:11.079Z,7.60
2023-05-04T05:06:38.441Z,7.60
2023-05-04T05:09:05.436Z,8.30
2023-05-04T05:11:32.630Z,7.90
2023-05-04T05:13:59.969Z,7.20
2023-05-04T05:16:27.120Z,9.07
2023-05-04T05:18:54.301Z,9.10
2023-05-04T05:21:21.021Z,8.83
2023-05-04T05:23:48.114Z,8.63
2023-05-04T05:26:14.953Z,9.07
2023-05-04T05:28:42.086Z,8.80
2023-05-04T05:31:08.844Z,9.90
2023-05-04T05:33:35.877Z,9.10
2023-05-04T05:36:03.510Z,9.37
2023-05-04T05:38:30.462Z,8.93
2023-05-04T05:40:57.183Z,11.03
2023-05-04T05:43:24.492Z,11.00
2023-05-04T05:45:51.259Z,11.77
2023-05-04T05:48:18.335Z,10.50
2023-05-04T05:50:45.106Z,10.07
2023-05-04T05:53:12.086Z,11.77
2023-05-04T05:55:38.762Z,10.30
2023-05-04T05:58:05.822Z,11.60
2023-05-04T06:00:32.587Z,9.90
2023-05-04T06:02:59.638Z,10.47
2023-05-04T06:05:26.816Z,10.30
2023-05-04T06:07:53.820Z,9.17
2023-05-04T06:10:20.666Z,9.33
2023-05-04T06:12:47.813Z,10.33
2023-05-04T06:15:15.049Z,8.47
2023-05-04T06:17:42.269Z,8.67
2023-05-04T06:20:09.304Z,8.50
2023-05-04T06:22:36.548Z,10.23
2023-05-04T06:25:06.052Z,9.70
2023-05-04T06:27:35.132Z,11.30
2023-05-04T06:30:01.873Z,9.77
2023-05-04T06:32:28.974Z,10.80
2023-05-04T06:34:56.004Z,10.00
2023-05-04T06:37:23.291Z,9.85
2023-05-04T06:39:50.080Z,8.68
2023-05-04T06:42:17.134Z,7.22
2023-05-04T06:44:47.853Z,6.35
2023-05-04T06:47:15.842Z,6.38
2023-05-04T06:49:42.537Z,6.20
2023-05-04T06:52:10.042Z,7.55
2023-05-04T06:54:36.726Z,6.88
2023-05-04T06:57:04.411Z,6.65
2023-05-04T06:59:31.289Z,7.18
2023-05-04T07:01:58.268Z,6.40
2023-05-04T07:04:25.142Z,7.13
2023-05-04T07:06:52.332Z,6.70
2023-05-04T07:09:19.885Z,6.03
2023-05-04T07:11:48.531Z,6.55
2023-05-04T07:14:16.272Z,7.05
2023-05-04T07:16:43.599Z,7.00
2023-05-04T07:19:10.522Z,6.32
2023-05-04T07:21:37.726Z,6.00
2023-05-04T07:24:05.241Z,5.50
2023-05-04T07:26:32.278Z,5.28
2023-05-04T07:28:59.042Z,6.03
2023-05-04T07:31:27.464Z,7.20
2023-05-04T07:33:55.646Z,5.45
2023-05-04T07:36:24.838Z,5.32
2023-05-04T07:38:51.607Z,5.55
2023-05-04T07:41:18.579Z,5.18
2023-05-04T07:43:45.901Z,5.57
2023-05-04T07:46:13.657Z,4.57
2023-05-04T07:48:40.500Z,5.60
2023-05-04T07:51:12.806Z,5.25
2023-05-04T07:53:39.506Z,5.15
2023-05-04T07:56:11.488Z,5.00
2023-05-04T07:58:38.291Z,4.15
2023-05-04T08:01:05.370Z,4.38
2023-05-04T08:03:32.274Z,4.88
2023-05-04T08:05:59.263Z,4.53
2023-05-04T08:08:25.985Z,4.28
2023-05-04T08:10:53.518Z,5.05
2023-05-04T08:13:20.858Z,4.88
2023-05-04T08:15:47.952Z,4.20
2023-05-04T08:18:14.698Z,5.03
2023-05-04T08:20:42.012Z,4.38
2023-05-04T08:23:09.110Z,5.43
2023-05-04T08:25:36.184Z,5.32
2023-05-04T08:28:02.879Z,4.45
2023-05-04T08:30:31.307Z,4.35
2023-05-04T08:32:59.289Z,4.32
2023-05-04T08:35:27.896Z,4.53
2023-05-04T08:37:54.853Z,3.60
2023-05-04T08:40:24.101Z,3.47
2023-05-04T08:42:52.262Z,5.68
2023-05-04T08:45:19.336Z,2.90
2023-05-04T08:47:46.400Z,2.72
2023-05-04T08:50:13.694Z,3.42
2023-05-04T08:52:48.880Z,2.70
2023-05-04T08:55:17.237Z,3.10
2023-05-04T08:57:44.552Z,3.30
2023-05-04T09:00:15.724Z,3.75
2023-05-04T09:02:44.246Z,3.67
2023-05-04T09:05:12.015Z,4.10
2023-05-04T09:07:38.846Z,3.97
2023-05-04T09:10:06.454Z,2.50
2023-05-04T09:12:33.576Z,2.53
2023-05-04T09:15:02.683Z,2.53
2023-05-04T09:17:29.772Z,2.10
2023-05-04T09:20:05.969Z,2.78
2023-05-04T09:22:33.455Z,2.35
2023-05-04T09:25:13.747Z,2.90
2023-05-04T09:27:42.686Z,2.83
2023-05-04T09:30:12.662Z,2.20
2023-05-04T09:32:46.702Z,2.30
2023-05-04T09:35:25.648Z,2.17
2023-05-04T09:37:59.887Z,2.70
2023-05-04T09:40:35.517Z,2.75
2023-05-04T09:43:02.651Z,2.13
2023-05-04T09:45:42.832Z,3.10
2023-05-04T09:48:20.017Z,2.60
2023-05-04T09:50:55.085Z,2.30
2023-05-04T09:53:29.061Z,2.30
2023-05-04T09:56:11.260Z,3.85
2023-05-04T09:58:40.182Z,2.20
2023-05-04T10:01:08.125Z,2.38
2023-05-04T10:03:35.261Z,1.80
2023-05-04T10:06:05.950Z,2.13
2023-05-04T10:08:33.148Z,2.03
2023-05-04T10:11:00.167Z,2.28
2023-05-04T10:13:26.925Z,2.30
2023-05-04T10:16:16.195Z,2.55
2023-05-04T10:19:02.171Z,2.05
2023-05-04T10:21:47.518Z,2.00
2023-05-04T10:24:29.423Z,2.28
2023-05-04T10:27:04.642Z,2.78
2023-05-04T10:29:35.548Z,2.03
2023-05-04T10:32:03.331Z,2.45
2023-05-04T10:34:32.310Z,1.80
2023-05-04T10:37:00.987Z,2.15
2023-05-04T10:39:33.504Z,1.83
2023-05-04T10:42:05.614Z,2.00
2023-05-04T10:44:48.479Z,2.45
2023-05-04T10:47:16.113Z,2.70
2023-05-04T10:49:42.946Z,2.17
2023-05-04T10:52:16.886Z,2.45
2023-05-04T10:54:44.421Z,2.47
2023-05-04T10:57:13.648Z,2.53
2023-05-04T10:59:41.310Z,2.80
2023-05-04T11:02:08.898Z,2.90
2023-05-04T11:04:36.327Z,2.30
2023-05-04T11:07:05.932Z,3.17
2023-05-04T11:09:38.253Z,2.10
2023-05-04T11:12:06.812Z,2.25
2023-05-04T11:14:37.775Z,2.50
2023-05-04T11:17:26.711Z,2.00
2023-05-04T11:19:54.039Z,2.00
2023-05-04T11:22:21.255Z,1.70
2023-05-04T11:24:51.515Z,1.80
2023-05-04T11:27:29.210Z,2.25
2023-05-04T11:30:00.987Z,2.60
2023-05-04T11:32:40.496Z,2.10
2023-05-04T11:35:25.040Z,2.42
2023-05-04T11:37:52.846Z,1.98
2023-05-04T11:40:22.398Z,1.67
2023-05-04T11:42:50.147Z,1.92
2023-05-04T11:45:18.995Z,2.20
2023-05-04T11:47:47.753Z,2.00
2023-05-04T11:50:16.729Z,1.80
2023-05-04T11:52:44.661Z,1.95
2023-05-04T11:55:14.049Z,2.17
2023-05-04T11:57:41.143Z,1.65
2023-05-04T12:00:09.480Z,2.20
2023-05-04T12:02:36.582Z,2.65
2023-05-04T12:05:04.043Z,1.92
2023-05-04T12:07:37.327Z,2.00
2023-05-04T12:10:04.268Z,1.80
2023-05-04T12:12:35.877Z,1.85
2023-05-04T12:15:02.645Z,2.00
2023-05-04T12:17:39.822Z,2.25
2023-05-04T12:20:07.435Z,1.90
2023-05-04T12:22:35.834Z,2.22
2023-05-04T12:25:02.695Z,2.20
2023-05-04T12:27:29.842Z,1.67
2023-05-04T12:29:56.598Z,1.83
2023-05-04T12:32:23.693Z,2.00
2023-05-04T12:34:50.531Z,2.08
2023-05-04T12:37:17.764Z,1.75
2023-05-04T12:39:44.603Z,1.70
2023-05-04T12:42:11.573Z,6.72
2023-05-04T12:44:38.417Z,4.00
2023-05-04T12:47:05.528Z,2.00
2023-05-04T12:49:32.360Z,3.25
2023-05-04T12:51:59.392Z,2.35
2023-05-04T12:54:26.132Z,1.83
2023-05-04T12:56:53.453Z,1.60
2023-05-04T12:59:20.413Z,2.00
2023-05-04T13:01:47.784Z,2.28
2023-05-04T13:04:14.910Z,2.00
2023-05-04T13:06:42.776Z,2.30
2023-05-04T13:09:10.086Z,1.73
2023-05-04T13:11:37.116Z,2.03
2023-05-04T13:14:04.029Z,2.67
2023-05-04T13:16:31.136Z,2.20
2023-05-04T13:18:58.132Z,2.03
2023-05-04T13:21:25.330Z,2.17
2023-05-04T13:23:52.243Z,2.08
2023-05-04T13:26:19.277Z,2.20
2023-05-04T13:28:46.233Z,2.28
2023-05-04T13:31:13.804Z,2.08
2023-05-04T13:33:41.405Z,1.77
2023-05-04T13:36:08.654Z,1.75
2023-05-04T13:38:35.450Z,2.00
2023-05-04T13:41:02.410Z,2.17
2023-05-04T13:43:29.155Z,1.80
2023-05-04T13:45:57.241Z,2.00
2023-05-04T13:48:26.306Z,2.30
2023-05-04T13:50:53.517Z,2.00
2023-05-04T13:53:20.239Z,1.92
2023-05-04T13:55:47.303Z,2.00
2023-05-04T13:58:14.099Z,1.70
2023-05-04T14:00:41.208Z,2.20
2023-05-04T14:03:08.025Z,1.67
2023-05-04T14:05:35.756Z,2.67
2023-05-04T14:08:02.935Z,2.05
2023-05-04T14:10:30.005Z,2.28
2023-05-04T14:12:56.754Z,2.40
2023-05-04T14:15:23.938Z,2.28
2023-05-04T14:17:50.765Z,2.03
2023-05-04T14:20:18.283Z,2.22
2023-05-04T14:22:45.380Z,1.75
2023-05-04T14:25:13.117Z,2.35
2023-05-04T14:27:40.051Z,3.17
2023-05-04T14:30:09.460Z,3.42
2023-05-04T14:32:36.705Z,2.17
2023-05-04T14:35:09.077Z,2.20
2023-05-04T14:37:38.060Z,1.70
2023-05-04T14:40:06.691Z,2.00
2023-05-04T14:42:34.025Z,1.92
2023-05-04T14:45:01.044Z,1.92
2023-05-04T14:47:28.753Z,2.05
2023-05-04T14:49:56.043Z,1.90
2023-05-04T14:52:23.024Z,2.03
2023-05-04T14:54:49.971Z,2.15
2023-05-04T14:57:16.983Z,3.33
2023-05-04T14:59:44.041Z,2.75
2023-05-04T15:02:12.469Z,1.90
2023-05-04T15:04:39.654Z,1.65
2023-05-04T15:07:06.409Z,1.73
2023-05-04T15:09:33.434Z,1.90
2023-05-04T15:12:00.252Z,1.90
2023-05-04T15:14:27.310Z,1.80
2023-05-04T15:16:54.039Z,1.70
2023-05-04T15:19:21.643Z,2.00
2023-05-04T15:21:49.363Z,1.75
2023-05-04T15:24:16.453Z,1.88
2023-05-04T15:26:43.175Z,2.08
2023-05-04T15:29:10.325Z,1.95
2023-05-04T15:31:38.369Z,2.22
2023-05-04T15:34:05.383Z,2.10
2023-05-04T15:36:32.133Z,1.60
2023-05-04T15:38:59.186Z,2.25
2023-05-04T15:41:27.554Z,1.98
2023-05-04T15:43:54.792Z,1.85
2023-05-04T15:46:21.567Z,1.90
2023-05-04T15:48:48.598Z,2.05
2023-05-04T15:51:15.431Z,1.80
2023-05-04T15:53:42.556Z,1.92
2023-05-04T15:56:09.350Z,2.00
2023-05-04T15:58:36.338Z,1.65
2023-05-04T16:01:04.221Z,2.33
2023-05-04T16:03:32.015Z,1.73
2023-05-04T16:05:59.065Z,2.20
2023-05-04T16:08:26.247Z,1.90
2023-05-04T16:10:53.624Z,1.88
2023-05-04T16:13:20.924Z,3.50
2023-05-04T16:15:51.646Z,2.28
2023-05-04T16:18:19.227Z,1.52
2023-05-04T16:20:47.231Z,1.77
2023-05-04T16:23:16.746Z,2.30
2023-05-04T16:25:43.975Z,1.60
2023-05-04T16:28:11.268Z,2.08
2023-05-04T16:30:38.379Z,1.98
2023-05-04T16:33:05.484Z,2.03
2023-05-04T16:35:32.382Z,2.10
2023-05-04T16:37:59.617Z,1.58
2023-05-04T16:40:28.157Z,1.63
2023-05-04T16:42:55.182Z,1.48
2023-05-04T16:45:24.724Z,1.88
2023-05-04T16:47:52.123Z,2.15
2023-05-04T16:50:18.934Z,1.98
2023-05-04T16:52:46.730Z,2.28
2023-05-04T16:55:13.583Z,2.00
2023-05-04T16:57:41.366Z,1.98
2023-05-04T17:00:09.113Z,1.90
2023-05-04T17:02:36.496Z,1.83
2023-05-04T17:05:06.620Z,1.90
2023-05-04T17:07:34.161Z,1.83
2023-05-04T17:10:01.006Z,1.75
2023-05-04T17:12:28.882Z,1.90
2023-05-04T17:14:55.907Z,1.85
2023-05-04T17:17:23.097Z,1.73
2023-05-04T17:19:49.908Z,1.90
2023-05-04T17:22:17.453Z,3.30
2023-05-04T17:24:45.542Z,2.40
2023-05-04T17:27:13.154Z,3.13
2023-05-04T17:29:41.070Z,3.03
2023-05-04T17:32:08.600Z,2.38
2023-05-04T17:34:36.140Z,2.67
2023-05-04T17:37:03.701Z,2.00
2023-05-04T17:39:31.663Z,2.10
2023-05-04T17:41:58.845Z,1.95
2023-05-04T17:44:26.100Z,2.55
2023-05-04T17:46:53.671Z,2.20
2023-05-04T17:49:20.987Z,5.07
2023-05-04T17:51:49.298Z,4.53
2023-05-04T17:54:16.551Z,5.10
2023-05-04T17:56:43.789Z,4.10
2023-05-04T17:59:10.575Z,4.80
2023-05-04T18:01:37.993Z,5.07
2023-05-04T18:04:05.057Z,5.57
2023-05-04T18:06:33.083Z,6.80
2023-05-04T18:09:00.937Z,6.45
2023-05-04T18:11:28.331Z,6.45
2023-05-04T18:13:58.156Z,7.03
2023-05-04T18:16:25.353Z,6.20
2023-05-04T18:18:52.556Z,6.80
2023-05-04T18:21:19.613Z,6.72
2023-05-04T18:23:46.884Z,7.72
2023-05-04T18:26:19.254Z,7.03
2023-05-04T18:28:46.045Z,5.72
2023-05-04T18:31:13.096Z,7.00
2023-05-04T18:33:39.920Z,6.13
2023-05-04T18:36:07.024Z,7.20
2023-05-04T18:38:35.093Z,8.05
2023-05-04T18:41:02.489Z,9.43
2023-05-04T18:43:29.363Z,11.35
2023-05-04T18:45:56.551Z,10.50
2023-05-04T18:48:23.317Z,9.23
2023-05-04T18:50:53.926Z,8.43
2023-05-04T18:53:20.934Z,8.40
2023-05-04T18:55:59.548Z,16.80
2023-05-04T18:58:26.297Z,17.40
2023-05-04T19:00:53.287Z,16.48
2023-05-04T19:03:20.127Z,14.55
2023-05-04T19:05:47.182Z,14.68
2023-05-04T19:08:13.958Z,17.48
2023-05-04T19:10:41.013Z,15.70
2023-05-04T19:13:07.853Z,15.02
2023-05-04T19:15:34.872Z,15.98
2023-05-04T19:18:01.764Z,17.00
2023-05-04T19:20:28.886Z,15.75
2023-05-04T19:22:56.951Z,13.77
2023-05-04T19:25:34.259Z,13.02
2023-05-04T19:28:02.670Z,14.77
2023-05-04T19:30:29.656Z,9.57
2023-05-04T19:32:56.404Z,6.65
2023-05-04T19:35:23.470Z,5.30
2023-05-04T19:37:50.439Z,5.13
2023-05-04T19:40:18.343Z,4.93
2023-05-04T19:42:46.100Z,6.38
2023-05-04T19:45:14.113Z,5.72
2023-05-04T19:47:41.681Z,5.15
2023-05-04T19:50:10.855Z,6.65
2023-05-04T19:52:38.495Z,5.05
2023-05-04T19:55:06.587Z,5.03
2023-05-04T19:57:33.490Z,6.07
2023-05-04T20:00:00.936Z,5.72
2023-05-04T20:02:31.167Z,5.45
2023-05-04T20:04:58.419Z,5.45
2023-05-04T20:07:25.334Z,6.15
2023-05-04T20:09:52.821Z,6.45
2023-05-04T20:12:19.575Z,6.72
2023-05-04T20:14:46.612Z,5.93
2023-05-04T20:17:13.313Z,5.53
2023-05-04T20:19:42.888Z,5.40
2023-05-04T20:22:09.902Z,4.90
2023-05-04T20:24:36.981Z,4.82
2023-05-04T20:27:03.838Z,5.18
2023-05-04T20:29:30.904Z,5.68
2023-05-04T20:32:01.326Z,4.78
2023-05-04T20:34:29.056Z,5.00
2023-05-04T20:36:56.424Z,4.57
2023-05-04T20:39:23.465Z,5.18
2023-05-04T20:41:50.540Z,4.50
2023-05-04T20:44:17.646Z,4.55
2023-05-04T20:46:45.207Z,4.47
2023-05-04T20:49:12.586Z,4.97
2023-05-04T20:51:39.481Z,4.68
2023-05-04T20:54:06.628Z,4.70
2023-05-04T20:56:33.376Z,5.03
2023-05-04T20:59:00.488Z,4.15
2023-05-04T21:01:27.419Z,3.95
2023-05-04T21:03:54.664Z,4.57
2023-05-04T21:06:22.891Z,4.97
2023-05-04T21:08:49.865Z,5.07
2023-05-04T21:11:16.673Z,4.65
2023-05-04T21:13:43.646Z,4.40
2023-05-04T21:16:11.337Z,4.20
2023-05-04T21:18:38.379Z,4.50
2023-05-04T21:21:05.377Z,4.43
2023-05-04T21:23:32.607Z,4.50
2023-05-04T21:26:02.984Z,4.25
2023-05-04T21:28:31.563Z,4.18
2023-05-04T21:30:58.926Z,4.45
2023-05-04T21:33:26.244Z,4.10
2023-05-04T21:35:53.040Z,3.67
2023-05-04T21:38:21.989Z,3.80
2023-05-04T21:40:49.330Z,3.75
2023-05-04T21:43:16.436Z,3.95
2023-05-04T21:45:43.258Z,3.38
2023-05-04T21:48:10.423Z,3.35
2023-05-04T21:50:37.173Z,3.80
2023-05-04T21:53:04.217Z,3.70
2023-05-04T21:55:30.977Z,4.47
2023-05-04T21:57:57.973Z,3.65
2023-05-04T22:00:24.904Z,3.53
2023-05-04T22:02:54.972Z,3.75
2023-05-04T22:05:22.494Z,4.70
2023-05-04T22:07:50.298Z,3.92
2023-05-04T22:10:17.512Z,3.92
2023-05-04T22:12:44.627Z,3.65
2023-05-04T22:15:11.597Z,4.03
2023-05-04T22:17:38.931Z,3.47
2023-05-04T22:20:06.728Z,3.92
2023-05-04T22:22:34.038Z,3.87
2023-05-04T22:25:00.873Z,3.78
2023-05-04T22:27:27.864Z,3.70
2023-05-04T22:29:54.721Z,3.60
2023-05-04T22:32:21.721Z,4.00
2023-05-04T22:34:48.437Z,4.00
2023-05-04T22:37:15.497Z,3.95
2023-05-04T22:39:42.190Z,3.85
2023-05-04T22:42:09.182Z,3.60
2023-05-04T22:44:35.940Z,3.33
2023-05-04T22:47:03.915Z,4.40
2023-05-04T22:49:30.665Z,3.70
2023-05-04T22:51:57.697Z,4.10
2023-05-04T22:54:24.449Z,4.07
2023-05-04T22:56:51.459Z,3.80
2023-05-04T22:59:18.221Z,3.45
2023-05-04T23:01:45.346Z,4.18
2023-05-04T23:04:12.078Z,3.90
2023-05-04T23:06:39.097Z,3.63
2023-05-04T23:09:05.838Z,3.13
2023-05-04T23:11:33.357Z,3.70
2023-05-04T23:14:00.065Z,3.60
2023-05-04T23:16:27.058Z,3.53
2023-05-04T23:18:53.988Z,3.33
2023-05-04T23:21:21.102Z,3.50
2023-05-04T23:23:50.313Z,3.73
2023-05-04T23:26:17.483Z,3.60
2023-05-04T23:28:44.626Z,3.60
2023-05-04T23:31:11.700Z,3.40
2023-05-04T23:33:38.446Z,3.63
2023-05-04T23:36:06.343Z,3.50
2023-05-04T23:38:33.065Z,3.73
2023-05-04T23:41:04.188Z,3.90
2023-05-04T23:43:31.888Z,3.27
2023-05-04T23:46:00.835Z,3.80
2023-05-04T23:48:28.948Z,4.10
2023-05-04T23:51:03.625Z,3.40
2023-05-04T23:53:31.863Z,3.70
2023-05-04T23:56:02.735Z,3.83
2023-05-04T23:58:31.404Z,3.50
